createdAt,value
2018-04-02T00:01:02.094Z,99.90
2018-04-02T00:03:30.280Z,99.90
2018-04-02T00:05:58.512Z,99.90
2018-04-02T00:08:26.737Z,99.90
2018-04-02T00:10:55.718Z,99.90
2018-04-02T00:13:23.935Z,99.90
2018-04-02T00:15:52.189Z,99.90
2018-04-02T00:18:21.151Z,99.90
2018-04-02T00:20:49.416Z,99.90
2018-04-02T00:23:17.658Z,99.90
2018-04-02T00:25:53.943Z,99.90
2018-04-02T00:28:22.118Z,99.90
2018-04-02T00:30:50.370Z,99.90
2018-04-02T00:33:18.550Z,99.90
2018-04-02T00:35:56.996Z,99.90
2018-04-02T00:38:25.208Z,99.90
2018-04-02T00:40:54.209Z,99.90
2018-04-02T00:43:22.463Z,99.90
2018-04-02T00:45:50.731Z,99.90
2018-04-02T00:48:18.955Z,99.90
2018-04-02T00:50:47.198Z,99.90
2018-04-02T00:53:16.163Z,99.90
2018-04-02T00:55:44.527Z,99.90
2018-04-02T00:58:12.797Z,99.90
2018-04-02T01:00:43.824Z,99.90
2018-04-02T01:03:12.049Z,99.90
2018-04-02T01:06:05.981Z,99.90
2018-04-02T01:08:34.405Z,99.90
2018-04-02T01:11:03.518Z,99.90
2018-04-02T01:13:32.608Z,99.90
2018-04-02T01:16:01.605Z,99.90
2018-04-02T01:18:31.369Z,99.90
2018-04-02T01:20:59.593Z,99.90
2018-04-02T01:23:27.848Z,99.90
2018-04-02T01:25:56.095Z,99.90
2018-04-02T01:28:24.403Z,99.90
2018-04-02T01:30:52.672Z,99.90
2018-04-02T01:33:20.950Z,99.90
2018-04-02T01:35:51.030Z,99.90
2018-04-02T01:38:20.034Z,99.90
2018-04-02T01:40:48.309Z,99.90
2018-04-02T01:43:16.587Z,99.90
2018-04-02T01:45:45.775Z,99.90
2018-04-02T01:48:14.072Z,99.90
2018-04-02T01:50:42.351Z,99.90
2018-04-02T01:53:10.637Z,99.90
2018-04-02T01:55:38.902Z,99.90
2018-04-02T01:58:07.188Z,99.90
2018-04-02T02:00:35.423Z,99.90
2018-04-02T02:03:03.642Z,99.90
2018-04-02T02:05:31.912Z,99.90
2018-04-02T02:08:00.201Z,99.90
2018-04-02T02:10:28.588Z,99.90
2018-04-02T02:12:57.562Z,99.90
2018-04-02T02:15:33.082Z,99.90
2018-04-02T02:18:01.391Z,99.90
2018-04-02T02:20:30.392Z,99.90
2018-04-02T02:22:59.048Z,99.90
2018-04-02T02:25:27.314Z,99.90
2018-04-02T02:27:55.596Z,99.90
2018-04-02T02:30:23.866Z,99.90
2018-04-02T02:32:52.153Z,99.90
2018-04-02T02:35:21.326Z,99.90
2018-04-02T02:37:49.609Z,99.90
2018-04-02T02:40:17.844Z,99.90
2018-04-02T02:42:46.080Z,99.90
2018-04-02T02:45:14.400Z,99.90
2018-04-02T02:47:42.660Z,99.90
2018-04-02T02:50:10.909Z,99.90
2018-04-02T02:52:39.206Z,99.90
2018-04-02T02:55:07.491Z,99.90
2018-04-02T02:57:36.505Z,99.90
2018-04-02T03:00:04.734Z,99.90
2018-04-02T03:02:33.060Z,99.90
2018-04-02T03:05:01.290Z,99.90
2018-04-02T03:07:29.590Z,99.90
2018-04-02T03:09:57.836Z,99.90
2018-04-02T03:12:26.086Z,99.90
2018-04-02T03:15:11.062Z,99.90
2018-04-02T03:17:39.326Z,99.90
2018-04-02T03:20:07.573Z,99.90
2018-04-02T03:22:35.829Z,99.90
2018-04-02T03:25:06.103Z,99.90
2018-04-02T03:27:34.332Z,99.90
2018-04-02T03:30:02.647Z,99.90
2018-04-02T03:32:31.238Z,99.90
2018-04-02T03:35:00.446Z,99.90
2018-04-02T03:37:28.720Z,99.90
2018-04-02T03:39:56.923Z,99.90
2018-04-02T03:42:25.948Z,99.90
2018-04-02T03:44:58.079Z,99.90
2018-04-02T03:47:27.120Z,99.90
2018-04-02T03:49:55.406Z,99.90
2018-04-02T03:52:23.701Z,99.90
2018-04-02T03:54:52.173Z,99.90
2018-04-02T03:57:20.432Z,99.90
2018-04-02T03:59:48.686Z,99.90
2018-04-02T04:02:17.419Z,99.90
2018-04-02T04:04:46.656Z,99.90
2018-04-02T04:07:14.958Z,99.90
2018-04-02T04:09:44.368Z,99.90
2018-04-02T04:12:12.690Z,99.90
2018-04-02T04:14:44.963Z,99.90
2018-04-02T04:17:13.188Z,99.90
2018-04-02T04:19:41.529Z,99.90
2018-04-02T04:22:09.823Z,99.90
2018-04-02T04:24:43.159Z,99.90
2018-04-02T04:27:11.471Z,99.90
2018-04-02T04:29:41.448Z,99.90
2018-04-02T04:32:09.739Z,99.90
2018-04-02T04:35:05.763Z,99.90
2018-04-02T04:37:34.967Z,99.90
2018-04-02T04:40:03.996Z,99.90
2018-04-02T04:42:32.268Z,99.90
2018-04-02T04:45:05.229Z,99.90
2018-04-02T04:47:34.305Z,99.90
2018-04-02T04:50:03.440Z,99.90
2018-04-02T04:52:32.447Z,99.90
2018-04-02T04:55:01.394Z,99.90
2018-04-02T04:57:29.606Z,99.90
2018-04-02T04:59:57.984Z,99.90
2018-04-02T05:02:27.038Z,99.90
2018-04-02T05:05:16.931Z,99.90
2018-04-02T05:07:54.101Z,99.90
2018-04-02T05:10:23.796Z,99.90
2018-04-02T05:12:52.051Z,99.90
2018-04-02T05:15:20.265Z,99.90
2018-04-02T05:17:48.515Z,99.90
2018-04-02T05:20:17.146Z,99.90
2018-04-02T05:22:46.927Z,99.90
2018-04-02T05:25:50.064Z,99.90
2018-04-02T05:28:18.307Z,99.90
2018-04-02T05:30:46.638Z,99.90
2018-04-02T05:33:14.900Z,99.90
2018-04-02T05:35:43.220Z,99.90
2018-04-02T05:38:11.450Z,99.90
2018-04-02T05:40:40.486Z,99.90
2018-04-02T05:43:09.838Z,99.90
2018-04-02T05:45:38.104Z,99.90
2018-04-02T05:48:06.936Z,99.90
2018-04-02T05:50:35.237Z,99.90
2018-04-02T05:53:03.924Z,99.90
2018-04-02T05:55:35.922Z,99.90
2018-04-02T05:58:05.319Z,99.90
2018-04-02T06:00:33.711Z,99.90
2018-04-02T06:05:44.549Z,99.90
2018-04-02T06:08:12.820Z,99.90
2018-04-02T06:10:41.611Z,99.90
2018-04-02T06:13:09.856Z,99.90
2018-04-02T06:15:42.387Z,99.90
2018-04-02T06:18:11.935Z,99.90
2018-04-02T06:20:41.562Z,99.90
2018-04-02T06:23:18.718Z,99.90
2018-04-02T06:26:14.892Z,99.90
2018-04-02T06:29:09.993Z,99.90
2018-04-02T06:35:13.593Z,99.90
2018-04-02T06:37:42.646Z,99.90
2018-04-02T06:40:11.713Z,99.90
2018-04-02T06:42:48.490Z,99.90
2018-04-02T06:45:19.611Z,99.90
2018-04-02T07:01:18.153Z,99.90
2018-04-02T07:07:34.284Z,99.90
2018-04-02T07:10:10.416Z,99.90
2018-04-02T07:16:32.050Z,99.90
2018-04-02T07:19:26.927Z,99.10
2018-04-02T07:22:19.901Z,98.90
2018-04-02T07:28:32.029Z,98.30
2018-04-02T07:31:07.586Z,97.30
2018-04-02T07:33:43.724Z,98.60
2018-04-02T07:36:11.962Z,96.90
2018-04-02T07:38:47.748Z,97.40
2018-04-02T07:41:16.020Z,97.80
2018-04-02T07:43:44.328Z,97.40
2018-04-02T07:46:14.023Z,95.60
2018-04-02T07:48:42.243Z,95.60
2018-04-02T07:51:10.462Z,95.00
2018-04-02T07:53:38.679Z,96.10
2018-04-02T07:56:06.896Z,95.20
2018-04-02T07:58:35.104Z,95.40
2018-04-02T08:01:03.363Z,94.70
2018-04-02T08:03:31.564Z,93.40
2018-04-02T08:06:00.539Z,94.40
2018-04-02T08:08:28.777Z,94.50
2018-04-02T08:10:57.048Z,93.60
2018-04-02T08:13:25.313Z,94.20
2018-04-02T08:15:53.583Z,93.00
2018-04-02T08:18:21.798Z,93.90
2018-04-02T08:20:49.985Z,94.00
2018-04-02T08:23:18.166Z,93.30
2018-04-02T08:25:46.453Z,93.00
2018-04-02T08:28:15.471Z,93.60
2018-04-02T08:30:44.464Z,92.90
2018-04-02T08:33:12.622Z,92.80
2018-04-02T08:35:42.489Z,91.70
2018-04-02T08:38:10.652Z,91.50
2018-04-02T08:40:38.813Z,90.40
2018-04-02T08:43:06.976Z,89.40
2018-04-02T08:45:36.090Z,88.60
2018-04-02T08:48:04.249Z,84.30
2018-04-02T08:50:32.423Z,87.20
2018-04-02T08:53:00.615Z,86.90
2018-04-02T08:55:29.710Z,87.60
2018-04-02T08:57:57.890Z,85.80
2018-04-02T09:00:26.121Z,81.20
2018-04-02T09:02:55.106Z,83.00
2018-04-02T09:05:25.061Z,75.90
2018-04-02T09:07:53.278Z,75.90
2018-04-02T09:10:21.503Z,77.60
2018-04-02T09:12:49.738Z,76.20
2018-04-02T09:15:18.679Z,75.80
2018-04-02T09:17:46.869Z,75.70
2018-04-02T09:20:22.998Z,68.50
2018-04-02T09:22:51.194Z,69.20
2018-04-02T09:25:26.656Z,72.30
2018-04-02T09:28:10.235Z,72.50
2018-04-02T09:30:38.478Z,70.00
2018-04-02T09:33:06.633Z,69.90
2018-04-02T09:35:35.390Z,67.30
2018-04-02T09:38:03.572Z,67.30
2018-04-02T09:40:32.629Z,68.40
2018-04-02T09:43:00.857Z,71.70
2018-04-02T09:48:14.825Z,65.70
2018-04-02T09:50:43.058Z,59.00
2018-04-02T09:53:11.506Z,58.90
2018-04-02T09:55:40.709Z,56.80
2018-04-02T09:58:09.730Z,58.20
2018-04-02T10:00:37.960Z,58.20
2018-04-02T10:03:07.150Z,59.10
2018-04-02T10:05:36.843Z,65.00
2018-04-02T10:08:08.066Z,62.60
2018-04-02T10:10:36.336Z,59.80
2018-04-02T10:13:05.275Z,59.50
2018-04-02T10:15:33.511Z,59.50
2018-04-02T10:18:02.526Z,61.70
2018-04-02T10:20:30.712Z,63.70
2018-04-02T10:23:08.163Z,62.30
2018-04-02T10:25:38.131Z,58.70
2018-04-02T10:28:06.402Z,53.80
2018-04-02T10:30:34.550Z,53.30
2018-04-02T10:33:11.741Z,54.10
2018-04-02T10:36:08.487Z,53.00
2018-04-02T10:38:36.715Z,53.90
2018-04-02T10:41:04.895Z,53.60
2018-04-02T10:43:37.604Z,52.70
2018-04-02T10:46:05.751Z,52.10
2018-04-02T10:48:34.017Z,53.60
2018-04-02T10:51:02.156Z,53.00
2018-04-02T10:53:30.318Z,53.00
2018-04-02T10:55:59.000Z,56.40
2018-04-02T10:58:27.278Z,50.80
2018-04-02T11:00:55.527Z,50.30
2018-04-02T11:03:23.802Z,50.40
2018-04-02T11:05:51.986Z,49.80
2018-04-02T11:08:20.263Z,50.40
2018-04-02T11:10:48.453Z,49.50
2018-04-02T11:13:16.695Z,48.20
2018-04-02T11:15:47.889Z,46.90
2018-04-02T11:18:16.178Z,47.80
2018-04-02T11:20:45.165Z,45.70
2018-04-02T11:23:14.679Z,42.80
2018-04-02T11:25:45.660Z,45.40
2018-04-02T11:28:13.846Z,45.30
2018-04-02T11:30:42.066Z,48.60
2018-04-02T11:33:11.032Z,45.70
2018-04-02T11:35:40.177Z,45.70
2018-04-02T11:38:08.364Z,44.00
2018-04-02T11:40:36.546Z,45.80
2018-04-02T11:43:04.733Z,44.40
2018-04-02T11:45:32.989Z,45.20
2018-04-02T11:48:01.235Z,44.40
2018-04-02T11:50:29.545Z,43.70
2018-04-02T11:52:57.724Z,43.10
2018-04-02T11:55:28.942Z,42.30
2018-04-02T11:57:57.200Z,43.90
2018-04-02T12:00:26.142Z,44.40
2018-04-02T12:02:54.333Z,44.40
2018-04-02T12:05:22.592Z,41.70
2018-04-02T12:07:50.780Z,42.20
2018-04-02T12:10:19.005Z,41.00
2018-04-02T12:12:47.195Z,40.90
2018-04-02T12:15:16.415Z,38.90
2018-04-02T12:17:44.624Z,38.10
2018-04-02T12:20:12.909Z,39.40
2018-04-02T12:22:41.111Z,39.00
2018-04-02T12:25:14.793Z,39.60
2018-04-02T12:27:43.029Z,40.10
2018-04-02T12:30:11.293Z,41.00
2018-04-02T12:32:39.506Z,39.20
2018-04-02T12:35:09.434Z,39.70
2018-04-02T12:37:37.661Z,39.60
2018-04-02T12:40:05.877Z,39.30
2018-04-02T12:42:34.123Z,39.10
2018-04-02T12:45:02.391Z,40.70
2018-04-02T12:47:30.654Z,40.60
2018-04-02T12:49:59.830Z,40.80
2018-04-02T12:52:28.076Z,37.60
2018-04-02T12:54:57.301Z,38.40
2018-04-02T12:57:25.494Z,38.40
2018-04-02T12:59:54.603Z,37.90
2018-04-02T13:02:23.817Z,38.70
2018-04-02T13:04:51.965Z,37.70
2018-04-02T13:07:20.266Z,39.50
2018-04-02T13:09:48.443Z,37.20
2018-04-02T13:12:16.723Z,36.90
2018-04-02T13:14:45.726Z,37.90
2018-04-02T13:17:14.820Z,36.60
2018-04-02T13:19:43.751Z,36.50
2018-04-02T13:22:13.158Z,36.50
2018-04-02T13:24:41.398Z,36.10
2018-04-02T13:27:10.418Z,36.70
2018-04-02T13:29:38.769Z,36.70
2018-04-02T13:32:09.630Z,35.70
2018-04-02T13:34:39.867Z,36.80
2018-04-02T13:37:08.839Z,37.10
2018-04-02T13:39:37.029Z,37.50
2018-04-02T13:42:06.354Z,35.40
2018-04-02T13:44:38.375Z,35.80
2018-04-02T13:47:06.592Z,36.40
2018-04-02T13:49:34.826Z,37.80
2018-04-02T13:52:12.145Z,38.90
2018-04-02T13:54:41.363Z,39.10
2018-04-02T13:57:09.546Z,40.00
2018-04-02T13:59:38.887Z,39.90
2018-04-02T14:02:07.494Z,39.60
2018-04-02T14:04:36.751Z,39.40
2018-04-02T14:07:05.044Z,38.10
2018-04-02T14:09:33.267Z,37.50
2018-04-02T14:12:01.493Z,34.80
2018-04-02T14:14:29.726Z,34.00
2018-04-02T14:16:57.949Z,34.80
2018-04-02T14:19:26.953Z,32.70
2018-04-02T14:21:55.179Z,34.90
2018-04-02T14:24:24.431Z,33.30
2018-04-02T14:26:52.688Z,31.90
2018-04-02T14:29:25.224Z,31.20
2018-04-02T14:31:54.342Z,31.00
2018-04-02T14:34:22.564Z,30.80
2018-04-02T14:36:50.762Z,30.70
2018-04-02T14:39:19.027Z,32.10
2018-04-02T14:41:47.267Z,33.30
2018-04-02T14:44:15.508Z,34.10
2018-04-02T14:46:44.527Z,36.20
2018-04-02T14:49:12.724Z,36.10
2018-04-02T14:51:40.974Z,34.80
2018-04-02T14:54:09.178Z,36.60
2018-04-02T14:56:37.445Z,36.40
2018-04-02T14:59:05.671Z,36.40
2018-04-02T15:01:34.660Z,35.70
2018-04-02T15:04:04.579Z,36.20
2018-04-02T15:06:33.567Z,37.80
2018-04-02T15:09:02.537Z,38.50
2018-04-02T15:11:30.824Z,38.50
2018-04-02T15:14:00.057Z,35.80
2018-04-02T15:16:29.222Z,35.70
2018-04-02T15:18:57.458Z,36.70
2018-04-02T15:21:25.715Z,36.10
2018-04-02T15:23:53.943Z,36.30
2018-04-02T15:26:22.214Z,35.70
2018-04-02T15:28:50.474Z,36.70
2018-04-02T15:31:20.050Z,35.10
2018-04-02T15:33:48.883Z,34.60
2018-04-02T15:36:17.061Z,34.90
2018-04-02T15:38:45.331Z,34.90
2018-04-02T15:41:13.498Z,34.90
2018-04-02T15:43:42.686Z,35.60
2018-04-02T15:46:10.886Z,35.00
2018-04-02T15:48:39.172Z,35.00
2018-04-02T15:51:08.139Z,37.00
2018-04-02T15:53:36.410Z,37.00
2018-04-02T15:56:04.616Z,37.60
2018-04-02T15:58:33.671Z,38.70
2018-04-02T16:01:01.901Z,38.60
2018-04-02T16:03:30.095Z,39.10
2018-04-02T16:05:58.348Z,39.10
2018-04-02T16:08:27.400Z,40.40
2018-04-02T16:10:55.663Z,40.30
2018-04-02T16:13:32.202Z,40.90
2018-04-02T16:16:00.344Z,40.90
2018-04-02T16:18:28.704Z,41.40
2018-04-02T16:20:56.904Z,40.70
2018-04-02T16:23:26.643Z,40.90
2018-04-02T16:25:54.869Z,40.80
2018-04-02T16:28:23.050Z,41.00
2018-04-02T16:30:52.061Z,40.80
2018-04-02T16:33:20.282Z,40.70
2018-04-02T16:35:48.579Z,41.80
2018-04-02T16:38:17.450Z,42.10
2018-04-02T16:40:45.651Z,42.30
2018-04-02T16:43:21.617Z,43.00
2018-04-02T16:45:50.854Z,41.70
2018-04-02T16:48:31.989Z,42.20
2018-04-02T16:51:00.179Z,42.80
2018-04-02T16:53:28.303Z,43.00
2018-04-02T16:55:56.485Z,42.40
2018-04-02T16:58:24.741Z,42.50
2018-04-02T17:00:53.647Z,41.90
2018-04-02T17:03:30.574Z,42.90
2018-04-02T17:05:59.586Z,43.40
2018-04-02T17:08:27.798Z,43.30
2018-04-02T17:10:56.017Z,43.00
2018-04-02T17:13:25.408Z,42.70
2018-04-02T17:15:54.489Z,43.40
2018-04-02T17:18:22.694Z,43.40
2018-04-02T17:20:50.900Z,43.70
2018-04-02T17:23:19.119Z,43.60
2018-04-02T17:25:49.063Z,44.20
2018-04-02T17:28:18.513Z,44.20
2018-04-02T17:30:48.309Z,43.80
2018-04-02T17:33:16.477Z,44.30
2018-04-02T17:35:45.589Z,45.30
2018-04-02T17:38:13.757Z,45.50
2018-04-02T17:40:41.981Z,46.00
2018-04-02T17:43:11.144Z,46.30
2018-04-02T17:45:39.334Z,46.30
2018-04-02T17:48:08.311Z,46.50
2018-04-02T17:50:36.609Z,46.50
2018-04-02T17:53:05.651Z,47.50
2018-04-02T17:55:34.794Z,47.50
2018-04-02T17:58:03.009Z,47.80
2018-04-02T18:00:31.180Z,48.30
2018-04-02T18:02:59.425Z,48.70
2018-04-02T18:05:29.349Z,49.80
2018-04-02T18:07:57.620Z,49.80
2018-04-02T18:10:26.559Z,50.90
2018-04-02T18:12:54.750Z,50.90
2018-04-02T18:15:24.938Z,51.30
2018-04-02T18:17:53.245Z,51.80
2018-04-02T18:20:21.489Z,52.40
2018-04-02T18:22:49.769Z,53.30
2018-04-02T18:25:20.042Z,53.80
2018-04-02T18:27:48.264Z,54.00
2018-04-02T18:30:16.487Z,55.40
2018-04-02T18:32:44.784Z,55.10
2018-04-02T18:35:12.972Z,56.00
2018-04-02T18:37:41.245Z,56.50
2018-04-02T18:40:09.520Z,56.50
2018-04-02T18:42:37.764Z,56.90
2018-04-02T18:45:06.083Z,56.90
2018-04-02T18:47:34.291Z,57.20
2018-04-02T18:50:02.521Z,57.00
2018-04-02T18:52:30.723Z,57.30
2018-04-02T18:54:59.923Z,56.80
2018-04-02T18:57:28.164Z,56.80
2018-04-02T18:59:56.403Z,56.90
2018-04-02T19:02:24.618Z,56.90
2018-04-02T19:04:52.870Z,57.40
2018-04-02T19:07:21.870Z,57.40
2018-04-02T19:09:50.860Z,56.10
2018-04-02T19:12:19.836Z,56.40
2018-04-02T19:14:48.983Z,56.30
2018-04-02T19:17:17.194Z,56.50
2018-04-02T19:19:45.499Z,57.00
2018-04-02T19:22:14.468Z,58.50
2018-04-02T19:24:43.650Z,58.50
2018-04-02T19:27:11.856Z,59.30
2018-04-02T19:29:40.114Z,59.20
2018-04-02T19:32:08.399Z,60.00
2018-04-02T19:34:36.629Z,61.00
2018-04-02T19:37:05.831Z,60.10
2018-04-02T19:39:34.122Z,59.70
2018-04-02T19:42:02.356Z,59.40
2018-04-02T19:44:30.661Z,59.40
2018-04-02T19:46:58.996Z,59.80
2018-04-02T19:49:28.015Z,61.50
2018-04-02T19:51:56.308Z,61.50
2018-04-02T19:54:25.585Z,61.70
2018-04-02T19:56:54.815Z,61.20
2018-04-02T19:59:23.015Z,61.10
2018-04-02T20:01:51.292Z,61.00
2018-04-02T20:04:20.289Z,61.00
2018-04-02T20:06:48.529Z,61.00
2018-04-02T20:09:16.746Z,60.80
2018-04-02T20:11:45.008Z,61.10
2018-04-02T20:14:15.221Z,61.00
2018-04-02T20:16:43.456Z,61.50
2018-04-02T20:19:11.664Z,61.20
2018-04-02T20:21:40.070Z,61.30
2018-04-02T20:24:08.303Z,61.50
2018-04-02T20:26:36.587Z,61.10
2018-04-02T20:29:04.868Z,61.70
2018-04-02T20:31:33.155Z,61.70
2018-04-02T20:34:02.336Z,62.50
2018-04-02T20:36:30.628Z,62.40
2018-04-02T20:38:58.868Z,62.00
2018-04-02T20:41:27.093Z,61.70
2018-04-02T20:43:56.392Z,61.00
2018-04-02T20:46:24.628Z,61.10
2018-04-02T20:48:52.911Z,60.00
2018-04-02T20:51:21.115Z,59.60
2018-04-02T20:53:51.319Z,58.30
2018-04-02T20:56:19.547Z,58.50
2018-04-02T20:58:47.797Z,57.80
2018-04-02T21:01:16.763Z,57.80
2018-04-02T21:03:45.911Z,57.70
2018-04-02T21:06:14.139Z,57.80
2018-04-02T21:08:42.373Z,57.00
2018-04-02T21:11:10.671Z,57.40
2018-04-02T21:13:43.243Z,58.60
2018-04-02T21:16:11.475Z,59.50
2018-04-02T21:18:40.491Z,59.60
2018-04-02T21:21:08.693Z,59.60
2018-04-02T21:23:37.872Z,59.40
2018-04-02T21:26:06.108Z,59.30
2018-04-02T21:28:35.110Z,59.50
2018-04-02T21:31:03.325Z,59.50
2018-04-02T21:33:32.518Z,59.60
2018-04-02T21:36:00.798Z,58.80
2018-04-02T21:38:29.126Z,59.60
2018-04-02T21:40:58.094Z,57.70
2018-04-02T21:43:26.327Z,57.60
2018-04-02T21:45:54.519Z,55.40
2018-04-02T21:48:22.740Z,56.00
2018-04-02T21:50:51.725Z,56.20
2018-04-02T21:53:19.935Z,56.30
2018-04-02T21:55:48.172Z,56.20
2018-04-02T21:58:16.479Z,56.30
2018-04-02T22:00:44.756Z,56.70
2018-04-02T22:03:12.987Z,56.30
2018-04-02T22:05:41.193Z,57.10
2018-04-02T22:08:10.354Z,58.10
2018-04-02T22:10:38.665Z,59.80
2018-04-02T22:13:07.625Z,60.10
2018-04-02T22:15:35.896Z,60.10
2018-04-02T22:18:04.111Z,59.00
2018-04-02T22:20:33.158Z,60.30
2018-04-02T22:23:01.385Z,60.30
2018-04-02T22:25:30.639Z,61.20
2018-04-02T22:27:58.838Z,61.10
2018-04-02T22:30:27.900Z,59.00
2018-04-02T22:32:56.169Z,59.50
2018-04-02T22:35:24.419Z,59.60
2018-04-02T22:37:52.635Z,59.70
2018-04-02T22:40:20.899Z,59.90
2018-04-02T22:42:49.132Z,61.90
2018-04-02T22:45:17.372Z,61.40
2018-04-02T22:47:45.582Z,62.10
2018-04-02T22:50:13.819Z,61.10
2018-04-02T22:52:42.080Z,62.60
2018-04-02T22:55:11.210Z,60.50
2018-04-02T22:57:40.268Z,60.90
2018-04-02T23:00:08.497Z,60.90
2018-04-02T23:02:36.774Z,60.00
2018-04-02T23:05:04.932Z,58.10
2018-04-02T23:07:33.989Z,57.70
2018-04-02T23:10:02.919Z,57.70
2018-04-02T23:12:31.127Z,57.30
2018-04-02T23:15:00.358Z,56.90
2018-04-02T23:17:28.577Z,56.60
2018-04-02T23:19:56.832Z,56.60
2018-04-02T23:22:57.306Z,56.70
2018-04-02T23:25:26.537Z,56.70
2018-04-02T23:27:54.750Z,58.10
2018-04-02T23:30:23.012Z,58.50
2018-04-02T23:32:52.042Z,59.80
2018-04-02T23:35:20.232Z,59.70
2018-04-02T23:37:48.482Z,60.80
2018-04-02T23:40:16.701Z,58.90
2018-04-02T23:42:44.983Z,59.20
2018-04-02T23:45:13.203Z,59.90
2018-04-02T23:47:41.412Z,61.70
2018-04-02T23:50:09.644Z,62.50
2018-04-02T23:52:38.687Z,65.40
2018-04-02T23:55:07.846Z,65.30
2018-04-02T23:57:36.075Z,68.40
